sensor_id;sensor_type;location;lat;lon;timestamp;pressure;altitude;pressure_sealevel;temperature;humidity
23303;BME280;11820;48.738;9.092;2023-01-29T00:01:47;97309.78;;;0.72;nan
23303;BME280;11820;48.738;9.092;2023-01-29T00:04:12;97310.22;;;0.66;nan
23303;BME280;11820;48.738;9.092;2023-01-29T00:06:38;97306.09;;;0.76;nan
23303;BME280;11820;48.738;9.092;2023-01-29T00:09:04;97314.75;;;0.73;nan
23303;BME280;11820;48.738;9.092;2023-01-29T00:11:29;97313.44;;;0.68;nan
23303;BME280;11820;48.738;9.092;2023-01-29T00:13:56;97309.59;;;0.62;nan
23303;BME280;11820;48.738;9.092;2023-01-29T00:16:21;97309.41;;;0.65;nan
23303;BME280;11820;48.738;9.092;2023-01-29T00:18:47;97313.41;;;0.57;nan
23303;BME280;11820;48.738;9.092;2023-01-29T00:21:15;97316.34;;;0.51;nan
23303;BME280;11820;48.738;9.092;2023-01-29T00:23:40;97307.91;;;0.50;nan
23303;BME280;11820;48.738;9.092;2023-01-29T00:26:06;97308.63;;;0.52;nan
23303;BME280;11820;48.738;9.092;2023-01-29T00:28:32;97300.84;;;0.66;nan
23303;BME280;11820;48.738;9.092;2023-01-29T00:30:57;97300.94;;;0.65;nan
23303;BME280;11820;48.738;9.092;2023-01-29T00:33:22;97309.72;;;0.61;nan
23303;BME280;11820;48.738;9.092;2023-01-29T00:35:48;97308.59;;;0.65;nan
23303;BME280;11820;48.738;9.092;2023-01-29T00:38:13;97309.19;;;0.68;nan
23303;BME280;11820;48.738;9.092;2023-01-29T00:40:39;97300.28;;;0.74;nan
23303;BME280;11820;48.738;9.092;2023-01-29T00:43:24;97298.78;;;0.71;nan
23303;BME280;11820;48.738;9.092;2023-01-29T00:46:09;97298.56;;;0.74;nan
23303;BME280;11820;48.738;9.092;2023-01-29T00:48:34;97301.59;;;0.79;nan
23303;BME280;11820;48.738;9.092;2023-01-29T00:51:01;97299.44;;;0.86;nan
23303;BME280;11820;48.738;9.092;2023-01-29T00:53:26;97308.53;;;0.77;nan
23303;BME280;11820;48.738;9.092;2023-01-29T00:55:52;97299.22;;;0.65;nan
23303;BME280;11820;48.738;9.092;2023-01-29T00:58:17;97301.88;;;0.64;nan
23303;BME280;11820;48.738;9.092;2023-01-29T01:00:47;97296.78;;;0.64;nan
23303;BME280;11820;48.738;9.092;2023-01-29T01:03:13;97300.16;;;0.64;nan
23303;BME280;11820;48.738;9.092;2023-01-29T01:05:39;97299.28;;;0.53;nan
23303;BME280;11820;48.738;9.092;2023-01-29T01:08:04;97300.06;;;0.53;nan
23303;BME280;11820;48.738;9.092;2023-01-29T01:10:58;97298.66;;;0.49;nan
23303;BME280;11820;48.738;9.092;2023-01-29T01:13:23;97301.16;;;0.38;nan
23303;BME280;11820;48.738;9.092;2023-01-29T01:15:48;97295.81;;;0.54;nan
23303;BME280;11820;48.738;9.092;2023-01-29T01:18:14;97301.91;;;0.51;nan
23303;BME280;11820;48.738;9.092;2023-01-29T01:20:40;97302.09;;;0.61;nan
23303;BME280;11820;48.738;9.092;2023-01-29T01:23:05;97303.66;;;0.74;nan
23303;BME280;11820;48.738;9.092;2023-01-29T01:25:31;97307.34;;;0.70;nan
23303;BME280;11820;48.738;9.092;2023-01-29T01:27:57;97306.88;;;0.65;nan
23303;BME280;11820;48.738;9.092;2023-01-29T01:30:24;97294.84;;;0.67;nan
23303;BME280;11820;48.738;9.092;2023-01-29T01:32:49;97296.19;;;0.60;nan
23303;BME280;11820;48.738;9.092;2023-01-29T01:35:15;97298.00;;;0.58;nan
23303;BME280;11820;48.738;9.092;2023-01-29T01:37:41;97286.38;;;0.43;nan
23303;BME280;11820;48.738;9.092;2023-01-29T01:40:15;97294.38;;;0.50;nan
23303;BME280;11820;48.738;9.092;2023-01-29T01:42:43;97294.94;;;0.42;nan
23303;BME280;11820;48.738;9.092;2023-01-29T01:45:19;97297.09;;;0.36;nan
23303;BME280;11820;48.738;9.092;2023-01-29T01:47:51;97292.25;;;0.44;nan
23303;BME280;11820;48.738;9.092;2023-01-29T01:50:31;97290.97;;;0.38;nan
23303;BME280;11820;48.738;9.092;2023-01-29T01:53:06;97286.50;;;0.29;nan
23303;BME280;11820;48.738;9.092;2023-01-29T01:55:34;97283.25;;;0.27;nan
23303;BME280;11820;48.738;9.092;2023-01-29T01:58:08;97278.66;;;0.32;nan
23303;BME280;11820;48.738;9.092;2023-01-29T02:00:34;97287.97;;;0.08;nan
23303;BME280;11820;48.738;9.092;2023-01-29T02:03:01;97294.16;;;0.17;nan
23303;BME280;11820;48.738;9.092;2023-01-29T02:05:45;97287.94;;;0.21;nan
23303;BME280;11820;48.738;9.092;2023-01-29T02:11:38;97287.53;;;0.39;nan
23303;BME280;11820;48.738;9.092;2023-01-29T02:14:03;97293.94;;;0.32;nan
23303;BME280;11820;48.738;9.092;2023-01-29T02:16:29;97293.00;;;0.33;nan
23303;BME280;11820;48.738;9.092;2023-01-29T02:18:55;97292.81;;;0.24;nan
23303;BME280;11820;48.738;9.092;2023-01-29T02:35:14;97306.06;;;0.29;nan
23303;BME280;11820;48.738;9.092;2023-01-29T02:38:21;97305.91;;;0.43;nan
23303;BME280;11820;48.738;9.092;2023-01-29T02:40:55;97298.41;;;0.41;nan
23303;BME280;11820;48.738;9.092;2023-01-29T02:46:25;97300.31;;;0.38;nan
23303;BME280;11820;48.738;9.092;2023-01-29T02:51:48;97302.78;;;0.39;nan
23303;BME280;11820;48.738;9.092;2023-01-29T02:54:20;97297.38;;;0.31;nan
23303;BME280;11820;48.738;9.092;2023-01-29T02:56:59;97299.00;;;0.32;nan
23303;BME280;11820;48.738;9.092;2023-01-29T02:59:39;97296.88;;;0.39;nan
23303;BME280;11820;48.738;9.092;2023-01-29T03:02:18;97292.59;;;0.39;nan
23303;BME280;11820;48.738;9.092;2023-01-29T03:04:50;97296.69;;;0.29;nan
23303;BME280;11820;48.738;9.092;2023-01-29T03:07:25;97288.44;;;0.38;nan
23303;BME280;11820;48.738;9.092;2023-01-29T03:10:14;97293.66;;;0.48;nan
23303;BME280;11820;48.738;9.092;2023-01-29T03:12:43;97295.22;;;0.50;nan
23303;BME280;11820;48.738;9.092;2023-01-29T03:15:17;97297.34;;;0.44;nan
23303;BME280;11820;48.738;9.092;2023-01-29T03:18:04;97299.59;;;0.48;nan
23303;BME280;11820;48.738;9.092;2023-01-29T03:20:35;97296.16;;;0.37;nan
23303;BME280;11820;48.738;9.092;2023-01-29T03:23:07;97292.97;;;0.46;nan
23303;BME280;11820;48.738;9.092;2023-01-29T03:25:35;97291.03;;;0.49;nan
23303;BME280;11820;48.738;9.092;2023-01-29T03:28:22;97296.56;;;0.43;nan
23303;BME280;11820;48.738;9.092;2023-01-29T03:31:09;97291.03;;;0.49;nan
23303;BME280;11820;48.738;9.092;2023-01-29T03:34:08;97294.78;;;0.56;nan
23303;BME280;11820;48.738;9.092;2023-01-29T03:36:55;97297.34;;;0.44;nan
23303;BME280;11820;48.738;9.092;2023-01-29T03:39:25;97301.94;;;0.39;nan
23303;BME280;11820;48.738;9.092;2023-01-29T03:42:01;97288.44;;;0.38;nan
23303;BME280;11820;48.738;9.092;2023-01-29T03:44:31;97290.56;;;0.44;nan
23303;BME280;11820;48.738;9.092;2023-01-29T03:52:14;97289.75;;;0.31;nan
23303;BME280;11820;48.738;9.092;2023-01-29T03:54:57;97290.19;;;0.25;nan
23303;BME280;11820;48.738;9.092;2023-01-29T03:57:33;97291.81;;;0.26;nan
23303;BME280;11820;48.738;9.092;2023-01-29T04:00:14;97295.53;;;0.33;nan
23303;BME280;11820;48.738;9.092;2023-01-29T04:02:54;97295.84;;;0.41;nan
23303;BME280;11820;48.738;9.092;2023-01-29T04:05:25;97293.84;;;0.34;nan
23303;BME280;11820;48.738;9.092;2023-01-29T04:07:58;97295.25;;;0.38;nan
23303;BME280;11820;48.738;9.092;2023-01-29T04:10:26;97296.44;;;0.45;nan
23303;BME280;11820;48.738;9.092;2023-01-29T04:13:00;97296.06;;;0.38;nan
23303;BME280;11820;48.738;9.092;2023-01-29T04:15:29;97297.28;;;0.33;nan
23303;BME280;11820;48.738;9.092;2023-01-29T04:17:58;97307.44;;;0.45;nan
23303;BME280;11820;48.738;9.092;2023-01-29T04:20:24;97294.19;;;0.53;nan
23303;BME280;11820;48.738;9.092;2023-01-29T04:22:50;97295.94;;;0.40;nan
23303;BME280;11820;48.738;9.092;2023-01-29T04:25:20;97301.66;;;0.43;nan
23303;BME280;11820;48.738;9.092;2023-01-29T04:28:04;97303.06;;;0.47;nan
23303;BME280;11820;48.738;9.092;2023-01-29T04:36:19;97301.88;;;0.28;nan
23303;BME280;11820;48.738;9.092;2023-01-29T04:39:01;97307.88;;;0.39;nan
23303;BME280;11820;48.738;9.092;2023-01-29T04:46:30;97293.84;;;0.34;nan
23303;BME280;11820;48.738;9.092;2023-01-29T04:51:48;97292.59;;;0.39;nan
23303;BME280;11820;48.738;9.092;2023-01-29T04:56:57;97287.56;;;0.27;nan
23303;BME280;11820;48.738;9.092;2023-01-29T04:59:30;97291.81;;;0.26;nan
23303;BME280;11820;48.738;9.092;2023-01-29T05:01:59;97295.53;;;0.33;nan
23303;BME280;11820;48.738;9.092;2023-01-29T05:04:28;97289.56;;;0.22;nan
23303;BME280;11820;48.738;9.092;2023-01-29T05:06:55;97290.38;;;0.35;nan
23303;BME280;11820;48.738;9.092;2023-01-29T05:09:22;97295.75;;;0.30;nan
23303;BME280;11820;48.738;9.092;2023-01-29T05:11:48;97296.47;;;0.32;nan
23303;BME280;11820;48.738;9.092;2023-01-29T05:14:16;97296.47;;;0.32;nan
23303;BME280;11820;48.738;9.092;2023-01-29T05:16:46;97304.41;;;0.40;nan
23303;BME280;11820;48.738;9.092;2023-01-29T05:19:15;97296.22;;;0.48;nan
23303;BME280;11820;48.738;9.092;2023-01-29T05:21:44;97298.31;;;0.30;nan
23303;BME280;11820;48.738;9.092;2023-01-29T05:24:22;97295.28;;;0.25;nan
23303;BME280;11820;48.738;9.092;2023-01-29T05:26:49;97294.84;;;0.31;nan
23303;BME280;11820;48.738;9.092;2023-01-29T05:29:34;97296.25;;;0.35;nan
23303;BME280;11820;48.738;9.092;2023-01-29T05:32:00;97301.59;;;0.20;nan
23303;BME280;11820;48.738;9.092;2023-01-29T05:34:25;97306.66;;;0.20;nan
23303;BME280;11820;48.738;9.092;2023-01-29T05:36:51;97302.97;;;0.36;nan
23303;BME280;11820;48.738;9.092;2023-01-29T05:39:16;97307.47;;;0.33;nan
23303;BME280;11820;48.738;9.092;2023-01-29T05:41:42;97295.50;;;0.22;nan
23303;BME280;11820;48.738;9.092;2023-01-29T05:44:11;97302.38;;;0.33;nan
23303;BME280;11820;48.738;9.092;2023-01-29T05:46:36;97295.75;;;0.30;nan
23303;BME280;11820;48.738;9.092;2023-01-29T05:49:02;97294.25;;;0.28;nan
23303;BME280;11820;48.738;9.092;2023-01-29T05:51:28;97296.28;;;0.23;nan
23303;BME280;11820;48.738;9.092;2023-01-29T05:53:53;97278.81;;;0.18;nan
23303;BME280;11820;48.738;9.092;2023-01-29T05:56:18;97278.63;;;0.21;nan
23303;BME280;11820;48.738;9.092;2023-01-29T05:58:44;97259.94;;;0.10;nan
23303;BME280;11820;48.738;9.092;2023-01-29T06:01:15;97254.63;;;0.13;nan
23303;BME280;11820;48.738;9.092;2023-01-29T06:03:40;97247.28;;;0.21;nan
23303;BME280;11820;48.738;9.092;2023-01-29T06:06:06;97251.63;;;0.31;nan
23303;BME280;11820;48.738;9.092;2023-01-29T06:08:32;97262.72;;;0.30;nan
23303;BME280;11820;48.738;9.092;2023-01-29T06:10:57;97270.81;;;0.35;nan
23303;BME280;11820;48.738;9.092;2023-01-29T06:13:23;97273.19;;;0.38;nan
23303;BME280;11820;48.738;9.092;2023-01-29T06:15:48;97270.38;;;0.18;nan
23303;BME280;11820;48.738;9.092;2023-01-29T06:18:13;97266.84;;;0.08;nan
23303;BME280;11820;48.738;9.092;2023-01-29T06:20:39;97272.34;;;0.14;nan
23303;BME280;11820;48.738;9.092;2023-01-29T06:23:04;97279.53;;;0.20;nan
23303;BME280;11820;48.738;9.092;2023-01-29T06:25:30;97278.63;;;0.21;nan
23303;BME280;11820;48.738;9.092;2023-01-29T06:27:55;97280.22;;;0.22;nan
23303;BME280;11820;48.738;9.092;2023-01-29T06:30:21;97281.06;;;0.10;nan
23303;BME280;11820;48.738;9.092;2023-01-29T06:32:46;97287.19;;;0.08;nan
23303;BME280;11820;48.738;9.092;2023-01-29T06:35:12;97281.06;;;0.10;nan
23303;BME280;11820;48.738;9.092;2023-01-29T06:37:37;97276.66;;;0.25;nan
23303;BME280;11820;48.738;9.092;2023-01-29T06:40:03;97291.03;;;0.13;nan
23303;BME280;11820;48.738;9.092;2023-01-29T06:42:28;97294.06;;;0.18;nan
23303;BME280;11820;48.738;9.092;2023-01-29T06:44:54;97297.31;;;0.20;nan
23303;BME280;11820;48.738;9.092;2023-01-29T06:47:20;97291.81;;;0.26;nan
23303;BME280;11820;48.738;9.092;2023-01-29T06:49:45;97289.59;;;0.09;nan
23303;BME280;11820;48.738;9.092;2023-01-29T06:52:11;97293.25;;;0.18;nan
23303;BME280;11820;48.738;9.092;2023-01-29T06:54:36;97289.28;;;0.14;nan
23303;BME280;11820;48.738;9.092;2023-01-29T06:57:01;97284.00;;;0.17;nan
23303;BME280;11820;48.738;9.092;2023-01-29T06:59:26;97290.22;;;0.13;nan
23303;BME280;11820;48.738;9.092;2023-01-29T07:01:52;97295.91;;;0.16;nan
23303;BME280;11820;48.738;9.092;2023-01-29T07:04:17;97293.66;;;0.24;nan
23303;BME280;11820;48.738;9.092;2023-01-29T07:06:42;97297.75;;;0.14;nan
23303;BME280;11820;48.738;9.092;2023-01-29T07:09:11;97295.91;;;0.16;nan
23303;BME280;11820;48.738;9.092;2023-01-29T07:11:36;97303.81;;;0.24;nan
23303;BME280;11820;48.738;9.092;2023-01-29T07:14:02;97296.00;;;0.15;nan
23303;BME280;11820;48.738;9.092;2023-01-29T07:16:28;97299.53;;;0.25;nan
23303;BME280;11820;48.738;9.092;2023-01-29T07:18:53;97297.81;;;0.25;nan
23303;BME280;11820;48.738;9.092;2023-01-29T07:21:18;97292.91;;;0.35;nan
23303;BME280;11820;48.738;9.092;2023-01-29T07:23:44;97300.41;;;0.36;nan
23303;BME280;11820;48.738;9.092;2023-01-29T07:26:10;97304.28;;;0.42;nan
23303;BME280;11820;48.738;9.092;2023-01-29T07:28:38;97299.31;;;0.40;nan
23303;BME280;11820;48.738;9.092;2023-01-29T07:31:05;97299.09;;;0.43;nan
23303;BME280;11820;48.738;9.092;2023-01-29T07:33:31;97306.59;;;0.45;nan
23303;BME280;11820;48.738;9.092;2023-01-29T07:35:56;97308.84;;;0.49;nan
23303;BME280;11820;48.738;9.092;2023-01-29T07:38:22;97306.91;;;0.53;nan
23303;BME280;11820;48.738;9.092;2023-01-29T07:40:47;97318.31;;;0.47;nan
23303;BME280;11820;48.738;9.092;2023-01-29T07:43:13;97326.75;;;0.48;nan
23303;BME280;11820;48.738;9.092;2023-01-29T07:45:38;97323.81;;;0.41;nan
23303;BME280;11820;48.738;9.092;2023-01-29T07:48:06;97325.28;;;0.56;nan
23303;BME280;11820;48.738;9.092;2023-01-29T07:50:33;97317.34;;;0.61;nan
23303;BME280;11820;48.738;9.092;2023-01-29T07:52:59;97324.28;;;0.59;nan
23303;BME280;11820;48.738;9.092;2023-01-29T07:55:24;97323.09;;;0.52;nan
23303;BME280;11820;48.738;9.092;2023-01-29T07:57:59;97336.31;;;0.44;nan
23303;BME280;11820;48.738;9.092;2023-01-29T08:00:24;97331.47;;;0.29;nan
23303;BME280;11820;48.738;9.092;2023-01-29T08:02:50;97333.47;;;0.36;nan
23303;BME280;11820;48.738;9.092;2023-01-29T08:05:15;97335.00;;;0.39;nan
23303;BME280;11820;48.738;9.092;2023-01-29T08:07:41;97343.25;;;0.42;nan
23303;BME280;11820;48.738;9.092;2023-01-29T08:10:06;97332.72;;;0.59;nan
23303;BME280;11820;48.738;9.092;2023-01-29T08:12:32;97331.91;;;0.59;nan
23303;BME280;11820;48.738;9.092;2023-01-29T08:14:57;97332.19;;;0.67;nan
23303;BME280;11820;48.738;9.092;2023-01-29T08:17:22;97326.31;;;0.66;nan
23303;BME280;11820;48.738;9.092;2023-01-29T08:19:48;97330.94;;;0.72;nan
23303;BME280;11820;48.738;9.092;2023-01-29T08:22:13;97327.13;;;0.54;nan
23303;BME280;11820;48.738;9.092;2023-01-29T08:24:40;97323.94;;;0.63;nan
23303;BME280;11820;48.738;9.092;2023-01-29T08:27:06;97338.91;;;0.68;nan
23303;BME280;11820;48.738;9.092;2023-01-29T08:29:31;97342.25;;;0.68;nan
23303;BME280;11820;48.738;9.092;2023-01-29T08:31:56;97351.75;;;0.66;nan
23303;BME280;11820;48.738;9.092;2023-01-29T08:34:21;97351.31;;;0.72;nan
23303;BME280;11820;48.738;9.092;2023-01-29T08:36:47;97350.66;;;0.81;nan
23303;BME280;11820;48.738;9.092;2023-01-29T08:39:12;97354.13;;;0.80;nan
23303;BME280;11820;48.738;9.092;2023-01-29T08:41:37;97349.03;;;0.80;nan
23303;BME280;11820;48.738;9.092;2023-01-29T08:44:03;97351.34;;;0.83;nan
23303;BME280;11820;48.738;9.092;2023-01-29T08:46:30;97355.03;;;0.79;nan
23303;BME280;11820;48.738;9.092;2023-01-29T08:48:55;97360.66;;;0.72;nan
23303;BME280;11820;48.738;9.092;2023-01-29T08:51:21;97363.06;;;0.86;nan
23303;BME280;11820;48.738;9.092;2023-01-29T08:53:46;97368.03;;;0.87;nan
23303;BME280;11820;48.738;9.092;2023-01-29T08:56:11;97358.56;;;0.89;nan
23303;BME280;11820;48.738;9.092;2023-01-29T08:58:37;97367.13;;;0.88;nan
23303;BME280;11820;48.738;9.092;2023-01-29T09:01:11;97363.47;;;0.92;nan
23303;BME280;11820;48.738;9.092;2023-01-29T09:03:37;97347.75;;;0.98;nan
23303;BME280;11820;48.738;9.092;2023-01-29T09:06:05;97351.00;;;1.00;nan
23303;BME280;11820;48.738;9.092;2023-01-29T09:08:31;97354.72;;;1.07;nan
23303;BME280;11820;48.738;9.092;2023-01-29T09:10:59;97358.19;;;1.06;nan
23303;BME280;11820;48.738;9.092;2023-01-29T09:13:25;97361.94;;;0.90;nan
23303;BME280;11820;48.738;9.092;2023-01-29T09:15:50;97366.75;;;1.05;nan
23303;BME280;11820;48.738;9.092;2023-01-29T09:18:15;97368.38;;;1.06;nan
23303;BME280;11820;48.738;9.092;2023-01-29T09:20:41;97376.28;;;0.91;nan
23303;BME280;11820;48.738;9.092;2023-01-29T09:23:08;97371.69;;;1.19;nan
23303;BME280;11820;48.738;9.092;2023-01-29T09:25:34;97369.84;;;1.21;nan
23303;BME280;11820;48.738;9.092;2023-01-29T09:28:00;97369.56;;;1.13;nan
23303;BME280;11820;48.738;9.092;2023-01-29T09:30:25;97369.63;;;1.24;nan
23303;BME280;11820;48.738;9.092;2023-01-29T09:32:50;97372.09;;;1.13;nan
23303;BME280;11820;48.738;9.092;2023-01-29T09:35:16;97375.50;;;1.25;nan
23303;BME280;11820;48.738;9.092;2023-01-29T09:37:41;97377.75;;;1.29;nan
23303;BME280;11820;48.738;9.092;2023-01-29T09:40:22;97378.50;;;1.42;nan
23303;BME280;11820;48.738;9.092;2023-01-29T09:43:17;97369.13;;;1.43;nan
23303;BME280;11820;48.738;9.092;2023-01-29T09:45:58;97361.78;;;1.38;nan
23303;BME280;11820;48.738;9.092;2023-01-29T09:48:27;97363.47;;;1.27;nan
23303;BME280;11820;48.738;9.092;2023-01-29T09:50:57;97363.13;;;1.20;nan
23303;BME280;11820;48.738;9.092;2023-01-29T09:53:28;97356.50;;;1.41;nan
23303;BME280;11820;48.738;9.092;2023-01-29T09:56:05;97348.13;;;1.39;nan
23303;BME280;11820;48.738;9.092;2023-01-29T09:58:39;97338.69;;;1.52;nan
23303;BME280;11820;48.738;9.092;2023-01-29T10:23:23;97294.72;;;2.16;nan
23303;BME280;11820;48.738;9.092;2023-01-29T10:25:52;97293.34;;;1.90;nan
23303;BME280;11820;48.738;9.092;2023-01-29T10:28:22;97294.03;;;2.25;nan
23303;BME280;11820;48.738;9.092;2023-01-29T10:30:53;97292.41;;;2.46;nan
23303;BME280;11820;48.738;9.092;2023-01-29T10:33:37;97302.84;;;2.43;nan
23303;BME280;11820;48.738;9.092;2023-01-29T10:36:07;97308.28;;;2.38;nan
23303;BME280;11820;48.738;9.092;2023-01-29T10:38:45;97299.78;;;2.60;nan
23303;BME280;11820;48.738;9.092;2023-01-29T10:41:37;97299.81;;;2.91;nan
23303;BME280;11820;48.738;9.092;2023-01-29T10:52:38;97314.53;;;2.56;nan
23303;BME280;11820;48.738;9.092;2023-01-29T11:00:44;97296.69;;;2.56;nan
23303;BME280;11820;48.738;9.092;2023-01-29T11:05:48;97294.13;;;2.56;nan
23303;BME280;11820;48.738;9.092;2023-01-29T11:08:20;97293.00;;;2.81;nan
23303;BME280;11820;48.738;9.092;2023-01-29T11:10:57;97304.50;;;2.75;nan
23303;BME280;11820;48.738;9.092;2023-01-29T11:13:30;97311.09;;;2.35;nan
23303;BME280;11820;48.738;9.092;2023-01-29T11:15:56;97306.91;;;2.34;nan
23303;BME280;11820;48.738;9.092;2023-01-29T11:18:21;97308.75;;;2.43;nan
23303;BME280;11820;48.738;9.092;2023-01-29T11:20:59;97296.00;;;2.43;nan
23303;BME280;11820;48.738;9.092;2023-01-29T11:23:32;97303.28;;;2.48;nan
23303;BME280;11820;48.738;9.092;2023-01-29T11:25:59;97290.44;;;2.38;nan
23303;BME280;11820;48.738;9.092;2023-01-29T11:28:41;97282.50;;;2.52;nan
23303;BME280;11820;48.738;9.092;2023-01-29T11:31:25;97287.41;;;2.55;nan
23303;BME280;11820;48.738;9.092;2023-01-29T11:34:02;97280.00;;;2.41;nan
23303;BME280;11820;48.738;9.092;2023-01-29T11:36:38;97270.13;;;2.48;nan
23303;BME280;11820;48.738;9.092;2023-01-29T11:39:12;97266.41;;;2.41;nan
23303;BME280;11820;48.738;9.092;2023-01-29T11:44:17;97261.09;;;2.86;nan
23303;BME280;11820;48.738;9.092;2023-01-29T11:46:43;97266.50;;;2.93;nan
23303;BME280;11820;48.738;9.092;2023-01-29T11:49:21;97258.31;;;2.78;nan
23303;BME280;11820;48.738;9.092;2023-01-29T11:51:51;97251.56;;;2.77;nan
23303;BME280;11820;48.738;9.092;2023-01-29T11:54:18;97259.53;;;2.63;nan
23303;BME280;11820;48.738;9.092;2023-01-29T11:56:47;97257.06;;;2.73;nan
23303;BME280;11820;48.738;9.092;2023-01-29T11:59:40;97256.84;;;2.96;nan
23303;BME280;11820;48.738;9.092;2023-01-29T12:02:21;97256.34;;;3.02;nan
23303;BME280;11820;48.738;9.092;2023-01-29T12:04:48;97254.00;;;3.10;nan
23303;BME280;11820;48.738;9.092;2023-01-29T12:07:16;97248.59;;;3.24;nan
23303;BME280;11820;48.738;9.092;2023-01-29T12:09:52;97238.44;;;3.33;nan
23303;BME280;11820;48.738;9.092;2023-01-29T12:12:37;97231.13;;;3.29;nan
23303;BME280;11820;48.738;9.092;2023-01-29T12:15:16;97224.03;;;3.32;nan
23303;BME280;11820;48.738;9.092;2023-01-29T12:17:46;97213.88;;;3.42;nan
23303;BME280;11820;48.738;9.092;2023-01-29T12:20:18;97201.06;;;3.62;nan
23303;BME280;11820;48.738;9.092;2023-01-29T12:25:55;97196.28;;;3.78;nan
23303;BME280;11820;48.738;9.092;2023-01-29T12:31:20;97185.16;;;4.47;nan
23303;BME280;11820;48.738;9.092;2023-01-29T12:33:52;97170.06;;;4.35;nan
23303;BME280;11820;48.738;9.092;2023-01-29T12:36:26;97154.69;;;4.82;nan
23303;BME280;11820;48.738;9.092;2023-01-29T12:38:53;97150.91;;;4.86;nan
23303;BME280;11820;48.738;9.092;2023-01-29T12:41:37;97147.41;;;4.30;nan
23303;BME280;11820;48.738;9.092;2023-01-29T12:44:18;97137.31;;;4.57;nan
23303;BME280;11820;48.738;9.092;2023-01-29T12:46:50;97140.94;;;4.64;nan
23303;BME280;11820;48.738;9.092;2023-01-29T12:49:21;97127.75;;;4.69;nan
23303;BME280;11820;48.738;9.092;2023-01-29T12:51:54;97128.28;;;4.53;nan
23303;BME280;11820;48.738;9.092;2023-01-29T12:55:10;97128.53;;;4.69;nan
23303;BME280;11820;48.738;9.092;2023-01-29T12:57:22;97121.84;;;5.60;nan
23303;BME280;11820;48.738;9.092;2023-01-29T12:59:54;97117.19;;;6.27;nan
23303;BME280;11820;48.738;9.092;2023-01-29T13:05:22;97122.03;;;6.30;nan
23303;BME280;11820;48.738;9.092;2023-01-29T13:08:29;97124.84;;;5.46;nan
23303;BME280;11820;48.738;9.092;2023-01-29T13:10:57;97125.56;;;5.75;nan
23303;BME280;11820;48.738;9.092;2023-01-29T13:16:22;97104.41;;;6.35;nan
23303;BME280;11820;48.738;9.092;2023-01-29T13:19:02;97101.00;;;5.99;nan
23303;BME280;11820;48.738;9.092;2023-01-29T13:21:34;97098.88;;;6.12;nan
23303;BME280;11820;48.738;9.092;2023-01-29T13:24:10;97096.06;;;5.88;nan
23303;BME280;11820;48.738;9.092;2023-01-29T13:26:36;97092.72;;;6.23;nan
23303;BME280;11820;48.738;9.092;2023-01-29T13:29:03;97084.66;;;6.35;nan
23303;BME280;11820;48.738;9.092;2023-01-29T13:31:36;97087.66;;;6.48;nan
23303;BME280;11820;48.738;9.092;2023-01-29T13:34:23;97095.72;;;6.53;nan
23303;BME280;11820;48.738;9.092;2023-01-29T13:37:10;97097.59;;;5.99;nan
23303;BME280;11820;48.738;9.092;2023-01-29T13:39:46;97094.78;;;6.19;nan
23303;BME280;11820;48.738;9.092;2023-01-29T13:42:22;97101.78;;;6.00;nan
23303;BME280;11820;48.738;9.092;2023-01-29T13:44:50;97104.75;;;5.78;nan
23303;BME280;11820;48.738;9.092;2023-01-29T13:47:26;97102.66;;;5.64;nan
23303;BME280;11820;48.738;9.092;2023-01-29T13:49:56;97103.22;;;5.21;nan
23303;BME280;11820;48.738;9.092;2023-01-29T13:52:33;97099.41;;;5.35;nan
23303;BME280;11820;48.738;9.092;2023-01-29T13:55:04;97113.66;;;5.74;nan
23303;BME280;11820;48.738;9.092;2023-01-29T14:10:39;97128.69;;;4.58;nan
23303;BME280;11820;48.738;9.092;2023-01-29T14:18:28;97113.72;;;4.44;nan
23303;BME280;11820;48.738;9.092;2023-01-29T14:21:05;97120.19;;;4.29;nan
23303;BME280;11820;48.738;9.092;2023-01-29T14:23:42;97116.94;;;4.18;nan
23303;BME280;11820;48.738;9.092;2023-01-29T14:29:16;97116.09;;;3.89;nan
23303;BME280;11820;48.738;9.092;2023-01-29T14:31:49;97110.44;;;3.85;nan
23303;BME280;11820;48.738;9.092;2023-01-29T14:36:46;97113.13;;;3.93;nan
23303;BME280;11820;48.738;9.092;2023-01-29T14:39:21;97117.38;;;3.64;nan
23303;BME280;11820;48.738;9.092;2023-01-29T14:41:49;97118.25;;;3.84;nan
23303;BME280;11820;48.738;9.092;2023-01-29T14:49:59;97107.94;;;3.55;nan
23303;BME280;11820;48.738;9.092;2023-01-29T14:52:38;97108.78;;;3.35;nan
23303;BME280;11820;48.738;9.092;2023-01-29T14:55:39;97112.22;;;3.45;nan
23303;BME280;11820;48.738;9.092;2023-01-29T14:58:03;97115.59;;;3.55;nan
23303;BME280;11820;48.738;9.092;2023-01-29T15:00:33;97105.41;;;3.65;nan
23303;BME280;11820;48.738;9.092;2023-01-29T15:03:03;97106.66;;;3.89;nan
23303;BME280;11820;48.738;9.092;2023-01-29T15:05:36;97099.66;;;3.91;nan
23303;BME280;11820;48.738;9.092;2023-01-29T15:10:51;97101.97;;;4.13;nan
23303;BME280;11820;48.738;9.092;2023-01-29T15:13:46;97101.81;;;3.86;nan
23303;BME280;11820;48.738;9.092;2023-01-29T15:16:23;97103.72;;;3.94;nan
23303;BME280;11820;48.738;9.092;2023-01-29T15:18:52;97114.25;;;4.00;nan
23303;BME280;11820;48.738;9.092;2023-01-29T15:21:20;97121.59;;;3.84;nan
23303;BME280;11820;48.738;9.092;2023-01-29T15:23:46;97118.91;;;3.95;nan
23303;BME280;11820;48.738;9.092;2023-01-29T15:26:19;97111.38;;;3.84;nan
23303;BME280;11820;48.738;9.092;2023-01-29T15:28:53;97108.84;;;3.94;nan
23303;BME280;11820;48.738;9.092;2023-01-29T15:31:19;97106.63;;;3.70;nan
23303;BME280;11820;48.738;9.092;2023-01-29T15:33:45;97104.09;;;3.70;nan
23303;BME280;11820;48.738;9.092;2023-01-29T15:36:21;97102.88;;;3.44;nan
23303;BME280;11820;48.738;9.092;2023-01-29T15:38:47;97104.09;;;3.40;nan
23303;BME280;11820;48.738;9.092;2023-01-29T15:41:18;97092.06;;;3.22;nan
23303;BME280;11820;48.738;9.092;2023-01-29T15:43:49;97095.69;;;3.19;nan
23303;BME280;11820;48.738;9.092;2023-01-29T15:46:24;97101.22;;;2.95;nan
23303;BME280;11820;48.738;9.092;2023-01-29T15:48:52;97096.91;;;2.95;nan
23303;BME280;11820;48.738;9.092;2023-01-29T15:51:21;97098.41;;;2.98;nan
23303;BME280;11820;48.738;9.092;2023-01-29T15:53:59;97103.69;;;2.65;nan
23303;BME280;11820;48.738;9.092;2023-01-29T15:56:51;97110.03;;;2.70;nan
23303;BME280;11820;48.738;9.092;2023-01-29T15:59:23;97117.63;;;2.61;nan
23303;BME280;11820;48.738;9.092;2023-01-29T16:01:50;97113.28;;;2.52;nan